Time;durP1;ratioP1;P1;durP2;ratioP2;P2;SDS_P1;SDS_P2;PMS_P1;PMS_P2;Temp;Humidity;BMP_temperature;BMP_pressure;BME280_temperature;BME280_humidity;BME280_pressure;Samples;Min_cycle;Max_cycle;Signal;HPM_P1;HPM_P2
2022/09/20 00:01:26;;;;;;;7.88;1.80;;;9.80;99.90;;;;;;5039189;28;20036;-80
2022/09/20 00:03:57;;;;;;;12.40;1.58;;;9.90;99.90;;;;;;5057519;28;20166;-80
2022/09/20 00:06:29;;;;;;;5.50;1.30;;;9.80;99.90;;;;;;5056680;28;20044;-81
2022/09/20 00:08:55;;;;;;;11.30;1.48;;;9.80;99.90;;;;;;5059125;28;20392;-80
2022/09/20 00:11:27;;;;;;;7.32;1.20;;;9.80;99.90;;;;;;5040171;28;20036;-79
2022/09/20 00:13:55;;;;;;;6.13;1.50;;;9.80;99.90;;;;;;5059631;28;20068;-80
2022/09/20 00:16:24;;;;;;;6.75;1.20;;;9.80;99.90;;;;;;5075567;28;20046;-81
2022/09/20 00:18:52;;;;;;;5.15;1.15;;;9.70;99.90;;;;;;5059023;28;20040;-80
2022/09/20 00:21:21;;;;;;;5.85;1.20;;;9.80;99.90;;;;;;5073458;28;20395;-81
2022/09/20 00:23:46;;;;;;;6.45;1.33;;;9.80;99.90;;;;;;5058014;28;20803;-80
2022/09/20 00:26:12;;;;;;;6.72;1.50;;;9.80;99.90;;;;;;5074604;28;20082;-80
2022/09/20 00:28:39;;;;;;;9.65;1.58;;;10.00;99.90;;;;;;5056482;28;20036;-81
2022/09/20 00:31:06;;;;;;;6.85;1.50;;;9.80;99.90;;;;;;5080794;28;20032;-81
2022/09/20 00:36:17;;;;;;;7.85;1.52;;;9.90;99.90;;;;;;5083017;28;20401;-81
2022/09/20 00:38:43;;;;;;;6.07;1.33;;;9.90;99.90;;;;;;5061594;28;20067;-82
2022/09/20 00:41:09;;;;;;;8.75;1.33;;;9.90;99.90;;;;;;5074943;28;20126;-81
2022/09/20 00:43:44;;;;;;;7.38;1.50;;;9.90;99.90;;;;;;5072822;28;20040;-82
2022/09/20 00:46:28;;;;;;;5.45;1.35;;;10.00;99.90;;;;;;5078786;28;20047;-81
2022/09/20 00:49:12;;;;;;;7.82;1.30;;;10.00;99.90;;;;;;5055318;28;20675;-80
2022/09/20 00:51:41;;;;;;;5.32;1.30;;;10.10;99.90;;;;;;5061817;28;20032;-83
2022/09/20 00:54:10;;;;;;;5.88;1.40;;;10.10;99.90;;;;;;5076618;28;20146;-81
2022/09/20 00:56:40;;;;;;;9.55;1.50;;;10.10;99.90;;;;;;5046162;28;20044;-80
2022/09/20 00:59:15;;;;;;;8.50;1.70;;;10.20;99.90;;;;;;5073809;28;20048;-81
2022/09/20 01:01:50;;;;;;;6.93;1.30;;;10.20;99.90;;;;;;5067327;28;20047;-80
2022/09/20 01:04:21;;;;;;;7.03;1.52;;;10.20;99.90;;;;;;5079468;28;20552;-80
2022/09/20 01:06:49;;;;;;;7.32;1.50;;;10.20;99.90;;;;;;5052280;28;20505;-81
2022/09/20 01:09:15;;;;;;;8.73;1.70;;;10.30;99.90;;;;;;5061918;28;20043;-81
2022/09/20 01:11:41;;;;;;;4.68;1.13;;;10.30;99.90;;;;;;5074224;28;20036;-81
2022/09/20 01:14:07;;;;;;;8.68;2.03;;;10.40;99.90;;;;;;5076934;28;20102;-80
2022/09/20 01:16:33;;;;;;;5.32;1.20;;;10.40;99.90;;;;;;5090929;28;20040;-81
2022/09/20 01:19:07;;;;;;;7.30;1.45;;;10.40;99.90;;;;;;5062037;28;20048;-81
2022/09/20 01:21:33;;;;;;;4.18;1.15;;;10.40;99.90;;;;;;5076543;28;20111;-80
2022/09/20 01:24:19;;;;;;;6.45;1.20;;;10.50;99.90;;;;;;5071782;28;20036;-80
2022/09/20 01:26:57;;;;;;;5.15;1.42;;;10.50;99.90;;;;;;5076529;28;20519;-80
2022/09/20 01:29:41;;;;;;;6.38;1.20;;;10.50;99.90;;;;;;5066756;28;20039;-82
2022/09/20 01:32:12;;;;;;;5.72;1.33;;;10.50;99.90;;;;;;5076734;28;20036;-80
2022/09/20 01:34:45;;;;;;;8.32;1.23;;;10.50;99.90;;;;;;5057112;28;20036;-80
2022/09/20 01:37:18;;;;;;;7.45;1.45;;;10.60;99.90;;;;;;5064418;28;20032;-80
2022/09/20 01:39:57;;;;;;;6.35;1.20;;;10.60;99.90;;;;;;5070024;28;20052;-80
2022/09/20 01:42:31;;;;;;;8.25;1.58;;;10.60;99.90;;;;;;5056587;28;20056;-80
2022/09/20 01:45:16;;;;;;;6.88;1.33;;;10.60;99.90;;;;;;5061034;28;20106;-80
2022/09/20 01:48:19;;;;;;;13.50;1.50;;;10.60;99.90;;;;;;5072896;28;20395;-81
2022/09/20 01:51:09;;;;;;;6.10;1.30;;;10.70;99.90;;;;;;5073616;28;20040;-80
2022/09/20 01:54:11;;;;;;;6.35;1.33;;;10.70;99.90;;;;;;5066437;28;20045;-81
2022/09/20 01:57:02;;;;;;;11.77;1.65;;;10.70;99.90;;;;;;5069601;28;20040;-81
2022/09/20 02:00:10;;;;;;;9.55;1.38;;;10.70;99.90;;;;;;5071064;28;20059;-80
2022/09/20 02:02:44;;;;;;;5.43;1.08;;;10.70;99.90;;;;;;5015801;28;20116;-81
2022/09/20 02:05:34;;;;;;;8.40;1.55;;;10.70;99.90;;;;;;5008232;28;20064;-80
2022/09/20 02:08:07;;;;;;;5.10;1.25;;;10.80;99.90;;;;;;5045609;28;20044;-81
2022/09/20 02:11:08;;;;;;;9.02;1.35;;;10.80;99.90;;;;;;5075132;28;20044;-80
2022/09/20 02:13:39;;;;;;;7.75;1.17;;;10.80;99.90;;;;;;5069378;28;20036;-81
2022/09/20 02:16:20;;;;;;;6.20;1.25;;;10.80;99.90;;;;;;5073127;28;20063;-81
2022/09/20 02:19:24;;;;;;;4.85;1.05;;;10.80;99.90;;;;;;5098477;28;20040;-80
2022/09/20 02:22:10;;;;;;;9.43;1.60;;;10.90;99.90;;;;;;5080794;28;20071;-80
2022/09/20 02:24:39;;;;;;;5.85;1.00;;;10.90;99.90;;;;;;5088903;28;20100;-81
2022/09/20 02:27:35;;;;;;;6.53;1.40;;;10.90;99.90;;;;;;5074255;28;20048;-80
2022/09/20 02:30:38;;;;;;;7.45;1.20;;;10.90;99.90;;;;;;5071520;28;20040;-81
2022/09/20 02:33:22;;;;;;;7.78;1.30;;;10.90;99.90;;;;;;5067283;28;20056;-81
2022/09/20 02:36:10;;;;;;;8.38;1.17;;;10.90;99.90;;;;;;5060445;28;20040;-82
2022/09/20 02:38:50;;;;;;;9.40;1.20;;;10.90;99.90;;;;;;5077493;28;20048;-81
2022/09/20 02:41:28;;;;;;;7.55;1.27;;;11.00;99.90;;;;;;5062439;28;20094;-80
2022/09/20 02:44:03;;;;;;;4.88;1.08;;;10.90;99.90;;;;;;5065581;28;20044;-80
2022/09/20 02:46:49;;;;;;;6.38;1.40;;;10.90;99.90;;;;;;5059314;28;20086;-80
2022/09/20 02:49:52;;;;;;;8.52;1.63;;;10.90;99.90;;;;;;5068526;28;20062;-79
2022/09/20 02:52:43;;;;;;;5.82;1.25;;;10.90;99.90;;;;;;5058289;28;20226;-82
2022/09/20 02:55:24;;;;;;;7.57;1.30;;;11.00;99.90;;;;;;5050879;28;20040;-80
2022/09/20 02:58:11;;;;;;;8.25;1.65;;;11.00;99.90;;;;;;5078176;28;20491;-80
2022/09/20 03:01:03;;;;;;;7.63;1.42;;;11.00;99.90;;;;;;5093552;28;20032;-81
2022/09/20 03:04:06;;;;;;;9.60;1.23;;;11.00;99.90;;;;;;5063391;28;20031;-79
2022/09/20 03:06:56;;;;;;;5.63;1.38;;;11.00;99.90;;;;;;5072479;28;20032;-80
2022/09/20 03:09:53;;;;;;;4.13;1.17;;;11.00;99.90;;;;;;5076776;28;20471;-81
2022/09/20 03:12:22;;;;;;;6.30;1.80;;;11.00;99.90;;;;;;5058369;28;20043;-81
2022/09/20 03:15:09;;;;;;;7.03;1.23;;;11.00;99.90;;;;;;5070514;28;20040;-81
2022/09/20 03:18:00;;;;;;;11.45;1.40;;;11.00;99.90;;;;;;5076830;28;20040;-80
2022/09/20 03:20:46;;;;;;;10.60;1.50;;;11.00;99.90;;;;;;5084831;28;20040;-81
2022/09/20 03:23:38;;;;;;;5.07;1.48;;;11.00;99.90;;;;;;5071399;28;20044;-80
2022/09/20 03:26:15;;;;;;;8.00;1.35;;;11.00;99.90;;;;;;5076088;28;20048;-81
2022/09/20 03:28:58;;;;;;;6.18;1.15;;;10.90;99.90;;;;;;5075121;28;20047;-80
2022/09/20 03:31:52;;;;;;;5.97;1.10;;;11.00;99.90;;;;;;5057653;28;20036;-80
2022/09/20 03:34:54;;;;;;;8.35;1.38;;;11.00;99.90;;;;;;5071870;28;20068;-80
2022/09/20 03:37:34;;;;;;;8.98;1.73;;;11.00;99.90;;;;;;5067367;28;20036;-80
2022/09/20 03:40:22;;;;;;;8.85;1.45;;;11.00;99.90;;;;;;5068950;28;20055;-80
2022/09/20 03:42:51;;;;;;;5.05;1.17;;;11.00;99.90;;;;;;5071430;28;20048;-81
2022/09/20 03:45:31;;;;;;;8.00;1.67;;;11.00;99.90;;;;;;5062525;28;20156;-81
2022/09/20 03:48:35;;;;;;;6.15;1.27;;;11.00;99.90;;;;;;5075148;28;20043;-80
2022/09/20 03:51:28;;;;;;;5.05;0.95;;;11.00;99.90;;;;;;5054626;28;20078;-79
2022/09/20 03:54:02;;;;;;;9.75;1.30;;;11.00;99.90;;;;;;5057192;28;20123;-80
2022/09/20 03:56:33;;;;;;;6.78;1.20;;;11.00;99.90;;;;;;5057516;28;20423;-80
2022/09/20 03:59:35;;;;;;;4.70;1.27;;;11.00;99.90;;;;;;5058296;28;20086;-80
2022/09/20 04:02:10;;;;;;;6.80;1.27;;;11.00;99.90;;;;;;5056825;28;20032;-80
2022/09/20 04:04:39;;;;;;;5.45;1.30;;;11.20;99.90;;;;;;5048298;28;20028;-80
2022/09/20 04:07:08;;;;;;;8.07;1.60;;;11.10;99.90;;;;;;5073106;28;20040;-80
2022/09/20 04:09:41;;;;;;;6.03;1.30;;;11.10;99.90;;;;;;5062980;28;20122;-80
2022/09/20 04:12:29;;;;;;;5.60;1.10;;;11.10;99.90;;;;;;5056472;28;20047;-80
2022/09/20 04:15:11;;;;;;;8.85;1.25;;;11.20;99.90;;;;;;5072874;28;20085;-79
2022/09/20 04:18:04;;;;;;;5.55;1.17;;;11.20;99.90;;;;;;5067947;28;20488;-80
2022/09/20 04:20:45;;;;;;;3.08;0.88;;;11.20;99.90;;;;;;5057173;28;20033;-81
2022/09/20 04:23:30;;;;;;;3.45;0.90;;;11.20;99.90;;;;;;5057707;28;20044;-81
2022/09/20 04:26:00;;;;;;;3.30;1.05;;;11.20;99.90;;;;;;5066848;28;20040;-81
2022/09/20 04:28:53;;;;;;;6.30;0.85;;;11.20;99.90;;;;;;5072385;28;20119;-81
2022/09/20 04:31:56;;;;;;;3.22;0.88;;;11.20;99.90;;;;;;5057968;28;20055;-80
2022/09/20 04:37:33;;;;;;;8.63;1.40;;;11.20;99.90;;;;;;5073467;28;20040;-81
2022/09/20 04:40:22;;;;;;;3.20;0.80;;;11.20;99.90;;;;;;5060168;28;20110;-81
2022/09/20 04:43:06;;;;;;;4.45;0.70;;;11.20;99.90;;;;;;5070297;28;20757;-81
2022/09/20 04:45:59;;;;;;;6.03;1.27;;;11.20;99.90;;;;;;5079597;28;20040;-81
2022/09/20 04:48:37;;;;;;;3.33;1.00;;;11.20;99.90;;;;;;5056794;28;20044;-81
2022/09/20 04:51:18;;;;;;;2.30;0.65;;;11.20;99.90;;;;;;5064094;28;20035;-81
2022/09/20 04:54:02;;;;;;;3.05;0.60;;;11.20;99.90;;;;;;5059095;28;20039;-80
2022/09/20 04:56:33;;;;;;;4.18;0.90;;;11.10;99.90;;;;;;5076094;28;20380;-80
2022/09/20 04:59:06;;;;;;;4.50;1.20;;;11.10;99.90;;;;;;5072898;28;20434;-81
2022/09/20 05:01:35;;;;;;;2.53;0.75;;;11.10;99.90;;;;;;5060384;28;20492;-79
2022/09/20 05:04:22;;;;;;;2.17;0.60;;;11.00;99.90;;;;;;5048962;28;20043;-80
2022/09/20 05:07:14;;;;;;;2.72;0.68;;;11.00;99.90;;;;;;5053579;28;20446;-80
2022/09/20 05:10:14;;;;;;;3.00;0.80;;;11.00;99.90;;;;;;5057016;28;20040;-80
2022/09/20 05:13:04;;;;;;;1.13;0.57;;;11.00;99.90;;;;;;5070611;28;20036;-80
2022/09/20 05:15:35;;;;;;;2.63;0.80;;;10.90;99.90;;;;;;5069333;28;20036;-81
2022/09/20 05:18:22;;;;;;;5.47;0.95;;;11.00;99.90;;;;;;5071463;28;20502;-81
2022/09/20 05:21:13;;;;;;;3.72;0.98;;;10.90;99.90;;;;;;5070711;28;20496;-80
2022/09/20 05:23:41;;;;;;;5.28;0.90;;;10.90;99.90;;;;;;5072819;28;20104;-81
2022/09/20 05:26:31;;;;;;;3.85;1.00;;;10.90;99.90;;;;;;5075540;28;20079;-81
2022/09/20 05:29:31;;;;;;;4.90;1.10;;;10.90;99.90;;;;;;5074283;28;20067;-80
2022/09/20 05:32:25;;;;;;;5.28;1.20;;;10.90;99.90;;;;;;5060627;28;20126;-81
2022/09/20 05:35:04;;;;;;;4.03;1.05;;;10.90;99.90;;;;;;5062729;28;20050;-81
2022/09/20 05:37:52;;;;;;;2.88;0.93;;;10.90;99.90;;;;;;5073953;28;20028;-82
2022/09/20 05:40:34;;;;;;;4.57;1.42;;;10.90;99.90;;;;;;5060512;28;20056;-81
2022/09/20 05:43:36;;;;;;;11.27;1.60;;;10.90;99.90;;;;;;5071802;28;20476;-81
2022/09/20 05:46:26;;;;;;;6.93;2.53;;;11.00;99.90;;;;;;5075487;28;20557;-81
2022/09/20 05:49:01;;;;;;;6.50;1.52;;;11.10;99.90;;;;;;5073065;28;20059;-83
2022/09/20 05:51:29;;;;;;;5.00;1.10;;;11.00;99.90;;;;;;5073469;28;20039;-82
2022/09/20 05:54:53;;;;;;;6.00;1.58;;;11.10;99.90;;;;;;5055935;28;20548;-81
2022/09/20 05:57:47;;;;;;;5.97;1.10;;;11.10;99.90;;;;;;4985252;28;20030;-81
2022/09/20 06:00:19;;;;;;;5.95;1.17;;;11.10;99.90;;;;;;5013097;28;20080;-81
2022/09/20 06:03:14;;;;;;;5.57;1.13;;;11.10;99.90;;;;;;5062959;28;20123;-81
2022/09/20 06:06:15;;;;;;;4.82;1.13;;;11.10;99.90;;;;;;5059350;28;20083;-81
2022/09/20 06:09:03;;;;;;;4.28;1.00;;;11.20;99.90;;;;;;5025182;28;20101;-81
2022/09/20 06:11:47;;;;;;;4.63;1.20;;;11.20;99.90;;;;;;5077417;28;20031;-82
2022/09/20 06:14:33;;;;;;;6.55;1.10;;;11.20;99.90;;;;;;5075064;28;20060;-81
2022/09/20 06:17:23;;;;;;;5.95;1.10;;;11.20;99.90;;;;;;5073699;28;20112;-80
2022/09/20 06:20:10;;;;;;;9.80;1.80;;;11.30;99.90;;;;;;5074851;28;20089;-79
2022/09/20 06:22:43;;;;;;;3.70;1.20;;;11.30;99.90;;;;;;5071769;28;20032;-80
2022/09/20 06:25:09;;;;;;;7.57;1.40;;;11.30;99.90;;;;;;5076814;28;20044;-80
2022/09/20 06:27:50;;;;;;;4.53;1.45;;;11.30;99.90;;;;;;5078498;28;20051;-80
2022/09/20 06:30:23;;;;;;;3.30;1.30;;;11.40;99.90;;;;;;5059365;28;20043;-80
2022/09/20 06:32:56;;;;;;;5.90;1.58;;;11.40;99.90;;;;;;5066564;28;20045;-80
2022/09/20 06:35:27;;;;;;;3.28;1.20;;;11.40;99.90;;;;;;5075229;28;20071;-79
2022/09/20 06:43:39;;;;;;;4.80;1.30;;;11.70;99.90;;;;;;5088152;28;20501;-80
2022/09/20 06:46:05;;;;;;;5.18;1.25;;;11.50;99.90;;;;;;5057233;28;21116;-82
2022/09/20 06:48:30;;;;;;;3.40;1.30;;;11.60;99.90;;;;;;5050916;28;20043;-79
2022/09/20 06:50:57;;;;;;;5.30;1.10;;;11.60;99.90;;;;;;5074508;28;20109;-82
2022/09/20 06:53:30;;;;;;;7.80;1.27;;;11.70;99.90;;;;;;5054802;28;20544;-83
2022/09/20 06:55:56;;;;;;;4.03;1.35;;;11.70;99.90;;;;;;5072477;28;20047;-82
2022/09/20 06:58:22;;;;;;;4.75;1.00;;;11.70;99.90;;;;;;5053419;28;20052;-82
2022/09/20 07:00:48;;;;;;;5.00;1.17;;;11.70;99.90;;;;;;5063482;28;20043;-81
2022/09/20 07:03:13;;;;;;;7.22;1.52;;;11.70;99.90;;;;;;5065257;28;20039;-80
2022/09/20 07:05:39;;;;;;;7.40;1.73;;;12.00;99.90;;;;;;5076940;28;20050;-80
2022/09/20 07:08:05;;;;;;;7.32;1.50;;;11.80;99.90;;;;;;5028463;28;20044;-80
2022/09/20 07:10:32;;;;;;;3.75;1.33;;;11.80;99.90;;;;;;5079356;28;20357;-81
2022/09/20 07:12:59;;;;;;;4.72;1.00;;;11.80;99.90;;;;;;5078537;28;20435;-81
2022/09/20 07:15:31;;;;;;;5.07;1.20;;;11.90;99.90;;;;;;5061712;28;20048;-81
2022/09/20 07:17:56;;;;;;;4.75;1.25;;;12.00;99.90;;;;;;5061115;28;20102;-81
2022/09/20 07:20:23;;;;;;;6.82;1.40;;;12.00;99.90;;;;;;5043762;28;20044;-81
2022/09/20 07:22:48;;;;;;;7.45;1.35;;;12.10;99.90;;;;;;5077254;28;20529;-81
2022/09/20 07:25:14;;;;;;;3.95;1.40;;;12.20;99.90;;;;;;5077298;28;20072;-82
2022/09/20 07:27:40;;;;;;;5.13;1.20;;;12.30;99.90;;;;;;5070104;28;20170;-83
2022/09/20 07:30:07;;;;;;;8.85;1.40;;;11.60;99.90;;;;;;5063596;28;20094;-82
2022/09/20 07:32:33;;;;;;;3.85;1.00;;;12.40;99.90;;;;;;5062643;28;20040;-81
2022/09/20 07:35:00;;;;;;;4.22;1.30;;;12.40;99.90;;;;;;5043554;28;20507;-81
2022/09/20 07:37:25;;;;;;;8.70;1.60;;;12.40;99.90;;;;;;5044630;28;20551;-82
2022/09/20 07:39:51;;;;;;;4.95;1.52;;;12.60;99.90;;;;;;5060214;28;20094;-82
2022/09/20 07:42:17;;;;;;;5.70;1.33;;;12.60;99.90;;;;;;5077056;28;20135;-82
2022/09/20 07:44:42;;;;;;;10.38;1.35;;;12.70;99.90;;;;;;5048906;28;20098;-82
2022/09/20 07:47:10;;;;;;;8.90;1.40;;;12.80;99.90;;;;;;5027908;28;20047;-80
2022/09/20 07:49:35;;;;;;;3.85;0.85;;;12.90;99.90;;;;;;5080412;28;20040;-81
2022/09/20 07:52:02;;;;;;;6.43;1.33;;;12.90;99.90;;;;;;5057419;28;20040;-80
2022/09/20 07:54:29;;;;;;;5.65;1.20;;;13.00;99.90;;;;;;5079823;28;20122;-80
2022/09/20 07:56:54;;;;;;;4.47;0.85;;;13.00;99.90;;;;;;5028092;28;20044;-81
2022/09/20 07:59:20;;;;;;;4.90;1.23;;;13.00;99.90;;;;;;5054761;28;20049;-81
2022/09/20 08:01:46;;;;;;;4.32;1.02;;;13.10;99.90;;;;;;5048118;28;20036;-81
2022/09/20 08:04:12;;;;;;;5.78;1.08;;;13.10;99.90;;;;;;5052589;28;20040;-81
2022/09/20 08:06:40;;;;;;;4.85;1.40;;;13.10;99.90;;;;;;5052641;28;20048;-80
2022/09/20 08:09:06;;;;;;;4.50;1.00;;;13.20;99.90;;;;;;5076767;28;20075;-82
2022/09/20 08:11:34;;;;;;;5.93;1.50;;;13.20;99.90;;;;;;5057436;28;20044;-81
2022/09/20 08:14:01;;;;;;;5.15;1.10;;;13.30;99.90;;;;;;5064895;28;20036;-81
2022/09/20 08:16:28;;;;;;;4.50;1.10;;;13.30;99.90;;;;;;5046388;28;20055;-82
2022/09/20 08:18:59;;;;;;;6.88;1.35;;;13.40;99.90;;;;;;5049702;28;20044;-81
2022/09/20 08:21:28;;;;;;;10.25;1.60;;;13.50;99.90;;;;;;5064087;28;20040;-81
2022/09/20 08:23:54;;;;;;;3.05;1.00;;;13.50;99.90;;;;;;5090974;28;20040;-81
2022/09/20 08:26:23;;;;;;;4.47;1.05;;;13.50;99.90;;;;;;5039692;28;20063;-81
2022/09/20 08:28:57;;;;;;;8.20;1.00;;;13.50;99.90;;;;;;5058260;28;20040;-81
2022/09/20 08:31:25;;;;;;;5.40;1.58;;;13.50;99.90;;;;;;5062841;28;20032;-82
2022/09/20 08:33:53;;;;;;;4.80;1.30;;;13.60;99.90;;;;;;5062428;28;20067;-81
2022/09/20 08:36:25;;;;;;;3.45;0.88;;;13.60;99.90;;;;;;5063724;28;20046;-81
2022/09/20 08:38:52;;;;;;;6.38;1.20;;;13.60;99.90;;;;;;5060058;28;20052;-81
2022/09/20 08:41:32;;;;;;;8.90;1.20;;;13.70;99.90;;;;;;5072810;28;20048;-81
2022/09/20 08:44:14;;;;;;;5.43;1.13;;;13.70;99.90;;;;;;5063226;28;20040;-81
2022/09/20 08:46:51;;;;;;;5.53;1.17;;;13.80;99.90;;;;;;5056917;28;20036;-81
2022/09/20 08:49:27;;;;;;;6.03;1.20;;;13.90;99.90;;;;;;5059920;28;20393;-81
2022/09/20 08:51:56;;;;;;;6.15;1.13;;;13.90;99.90;;;;;;5074466;28;20036;-81
2022/09/20 08:54:24;;;;;;;6.20;1.20;;;13.90;99.90;;;;;;5066565;28;20051;-81
2022/09/20 08:56:50;;;;;;;6.30;1.35;;;14.00;99.90;;;;;;5065892;28;20035;-81
2022/09/20 08:59:18;;;;;;;4.32;0.88;;;14.10;99.90;;;;;;5053197;28;20040;-81
2022/09/20 09:01:49;;;;;;;2.25;0.70;;;14.10;99.90;;;;;;5064659;28;20060;-81
2022/09/20 09:04:17;;;;;;;8.57;1.20;;;14.10;99.90;;;;;;5057002;28;20096;-81
2022/09/20 09:06:45;;;;;;;5.03;1.10;;;14.10;99.90;;;;;;5080616;28;20048;-81
2022/09/20 09:09:23;;;;;;;4.80;1.08;;;14.20;99.90;;;;;;5073134;28;20037;-81
2022/09/20 09:11:50;;;;;;;7.82;1.13;;;14.20;99.90;;;;;;5079474;28;20115;-81
2022/09/20 09:17:15;;;;;;;4.03;0.70;;;14.20;99.90;;;;;;5079301;28;20573;-81
2022/09/20 09:19:55;;;;;;;5.05;1.00;;;14.30;99.90;;;;;;5036303;28;20071;-81
2022/09/20 09:22:41;;;;;;;3.90;1.10;;;14.30;99.90;;;;;;5072495;28;20040;-82
2022/09/20 09:25:07;;;;;;;;;;;14.30;99.90;;;;;;5059728;28;20403;-81
2022/09/20 09:27:34;;;;;;;5.83;0.90;;;14.20;99.90;;;;;;5062595;28;19919;-81
2022/09/20 09:30:00;;;;;;;9.63;1.30;;;14.20;99.90;;;;;;5038928;28;20036;-82
2022/09/20 09:32:31;;;;;;;5.78;1.17;;;14.30;99.90;;;;;;5063227;28;20042;-81
2022/09/20 09:35:24;;;;;;;4.28;1.02;;;14.30;99.90;;;;;;5062762;28;20036;-81
2022/09/20 09:38:00;;;;;;;5.57;0.90;;;14.40;99.90;;;;;;5063289;28;20037;-82
2022/09/20 09:40:27;;;;;;;7.82;1.23;;;14.30;99.90;;;;;;5073827;28;20103;-81
2022/09/20 09:42:55;;;;;;;4.20;1.00;;;14.40;99.90;;;;;;5053765;28;20431;-81
2022/09/20 09:45:29;;;;;;;7.65;1.40;;;14.40;99.90;;;;;;5077257;28;20043;-81
2022/09/20 09:47:56;;;;;;;3.97;1.08;;;14.30;99.90;;;;;;5078875;28;20044;-82
2022/09/20 09:50:30;;;;;;;6.00;0.88;;;14.40;99.90;;;;;;5075847;28;20071;-81
2022/09/20 09:52:58;;;;;;;5.47;1.00;;;14.40;99.90;;;;;;5078681;28;20514;-81
2022/09/20 09:55:36;;;;;;;6.07;1.30;;;14.60;99.90;;;;;;5060830;28;20036;-80
2022/09/20 09:58:33;;;;;;;9.52;1.40;;;14.60;99.90;;;;;;5076627;28;20032;-80
2022/09/20 10:01:04;;;;;;;5.85;1.38;;;14.70;99.90;;;;;;5078079;28;20043;-81
2022/09/20 10:03:57;;;;;;;4.03;1.02;;;14.70;99.90;;;;;;5077152;28;20079;-81
2022/09/20 10:06:31;;;;;;;5.63;1.10;;;14.90;99.90;;;;;;5079200;28;20044;-81
2022/09/20 10:09:20;;;;;;;4.07;1.00;;;15.00;99.90;;;;;;5053461;28;20044;-82
2022/09/20 10:11:59;;;;;;;6.30;1.02;;;15.00;99.90;;;;;;5048225;28;20083;-81
2022/09/20 10:14:43;;;;;;;7.07;0.90;;;15.10;99.90;;;;;;5060184;28;20119;-80
2022/09/20 10:17:30;;;;;;;6.05;1.50;;;15.10;99.90;;;;;;5069120;28;20070;-80
2022/09/20 10:20:06;;;;;;;4.57;1.00;;;15.10;99.90;;;;;;5063940;28;20040;-81
2022/09/20 10:22:35;;;;;;;5.22;1.10;;;15.00;99.90;;;;;;5076138;28;20113;-81
2022/09/20 10:25:09;;;;;;;3.85;0.90;;;14.90;99.90;;;;;;5061095;28;20036;-82
2022/09/20 10:27:47;;;;;;;7.88;1.27;;;14.80;99.90;;;;;;5074499;28;20106;-80
2022/09/20 10:30:17;;;;;;;4.22;1.20;;;14.80;99.90;;;;;;5057729;28;20438;-81
2022/09/20 10:32:48;;;;;;;7.97;1.13;;;14.70;99.90;;;;;;5078385;28;20118;-81
2022/09/20 10:36:02;;;;;;;9.85;1.48;;;14.70;99.90;;;;;;5088114;28;20068;-81
2022/09/20 10:38:44;;;;;;;11.07;1.00;;;14.60;99.90;;;;;;5056809;28;20431;-80
2022/09/20 10:44:12;;;;;;;6.30;1.13;;;14.60;99.90;;;;;;5070351;28;20044;-80
2022/09/20 10:46:56;;;;;;;5.38;1.13;;;14.60;99.90;;;;;;5055696;28;20040;-79
2022/09/20 10:49:34;;;;;;;3.92;1.25;;;14.70;99.90;;;;;;5059041;28;20085;-79
2022/09/20 10:52:21;;;;;;;8.00;1.60;;;14.70;99.90;;;;;;5087357;28;20161;-79
2022/09/20 10:55:00;;;;;;;5.20;1.10;;;14.70;99.90;;;;;;5075239;28;20100;-81
2022/09/20 10:57:50;;;;;;;7.07;1.02;;;14.80;99.90;;;;;;5057598;28;20549;-81
2022/09/20 11:00:31;;;;;;;2.78;0.70;;;14.80;99.90;;;;;;5082399;28;20163;-81
2022/09/20 11:02:59;;;;;;;9.27;1.23;;;14.90;99.90;;;;;;5060281;28;20040;-81
2022/09/20 11:05:35;;;;;;;4.07;1.02;;;15.00;99.90;;;;;;5059514;28;20076;-80
2022/09/20 11:08:04;;;;;;;;;;;15.10;99.90;;;;;;5077567;28;20563;-80
2022/09/20 11:10:36;;;;;;;4.65;1.20;;;15.20;99.90;;;;;;5065330;28;19935;-80
2022/09/20 11:13:09;;;;;;;7.25;2.15;;;15.30;99.90;;;;;;5058150;28;20496;-82
2022/09/20 11:15:45;;;;;;;6.18;1.20;;;15.30;99.90;;;;;;5053619;28;20039;-81
2022/09/20 11:18:19;;;;;;;;;;;15.50;99.90;;;;;;5051031;28;20066;-81
2022/09/20 11:20:53;;;;;;;6.72;1.10;;;15.50;99.90;;;;;;5056808;28;19923;-81
2022/09/20 11:23:28;;;;;;;5.55;0.90;;;15.70;99.90;;;;;;5071472;28;20036;-80
2022/09/20 11:26:05;;;;;;;4.50;0.95;;;15.60;99.90;;;;;;5071137;28;20040;-81
2022/09/20 11:28:39;;;;;;;10.70;1.02;;;15.80;99.90;;;;;;5074018;28;20047;-80
2022/09/20 11:31:19;;;;;;;4.47;0.80;;;15.90;99.90;;;;;;5061719;28;20730;-80
2022/09/20 11:33:52;;;;;;;4.60;0.90;;;15.80;99.90;;;;;;5072035;28;20051;-80
2022/09/20 11:36:25;;;;;;;3.25;1.00;;;15.80;99.90;;;;;;5059393;28;20127;-81
2022/09/20 11:39:12;;;;;;;4.85;1.60;;;15.80;99.90;;;;;;5067149;28;20198;-81
2022/09/20 11:41:38;;;;;;;5.78;1.13;;;15.80;99.90;;;;;;5055559;28;20047;-81
2022/09/20 11:44:11;;;;;;;4.43;0.77;;;15.80;99.90;;;;;;5048700;28;20055;-79
2022/09/20 11:47:03;;;;;;;6.47;1.02;;;15.90;99.90;;;;;;5092191;28;20035;-81
2022/09/20 11:49:45;;;;;;;7.47;1.08;;;16.00;99.90;;;;;;5075169;28;20028;-80
2022/09/20 11:52:29;;;;;;;4.68;0.82;;;16.00;99.90;;;;;;5077438;28;20028;-81
2022/09/20 11:55:04;;;;;;;5.28;1.05;;;16.00;99.90;;;;;;5050750;28;20151;-80
2022/09/20 11:57:30;;;;;;;5.93;1.35;;;16.00;99.90;;;;;;5088291;28;20483;-81
2022/09/20 12:00:02;;;;;;;5.57;1.10;;;15.90;99.90;;;;;;5060399;28;20043;-81
2022/09/20 12:02:34;;;;;;;5.97;1.17;;;15.80;99.90;;;;;;5057285;28;20081;-81
2022/09/20 12:05:00;;;;;;;6.55;1.00;;;15.60;99.90;;;;;;5062044;28;20400;-80
2022/09/20 12:07:40;;;;;;;5.60;1.10;;;15.40;99.90;;;;;;5057168;28;20040;-81
2022/09/20 12:10:20;;;;;;;9.15;1.50;;;15.20;99.90;;;;;;5059920;28;20064;-81
2022/09/20 12:12:49;;;;;;;2.40;0.85;;;14.90;99.90;;;;;;5060731;28;20495;-80
2022/09/20 12:15:42;;;;;;;4.47;1.10;;;14.80;99.90;;;;;;5063030;28;20463;-81
2022/09/20 12:18:31;;;;;;;5.53;1.20;;;14.70;99.90;;;;;;5069997;28;20082;-82
2022/09/20 12:20:58;;;;;;;4.22;1.17;;;14.70;99.90;;;;;;5057973;28;20093;-81
2022/09/20 12:23:40;;;;;;;6.40;1.40;;;14.70;99.90;;;;;;5074949;28;20037;-81
2022/09/20 12:26:19;;;;;;;8.32;1.17;;;14.70;99.90;;;;;;5071520;28;20028;-81
2022/09/20 12:28:49;;;;;;;9.57;1.45;;;14.80;99.90;;;;;;5066253;28;20048;-81
2022/09/20 12:31:20;;;;;;;6.47;1.23;;;14.90;99.90;;;;;;5059678;28;20042;-81
2022/09/20 12:33:56;;;;;;;7.53;1.60;;;14.90;99.90;;;;;;5072287;28;20040;-82
2022/09/20 12:36:23;;;;;;;8.60;1.48;;;14.90;99.90;;;;;;5064777;28;20032;-80
2022/09/20 12:39:13;;;;;;;7.28;1.20;;;15.00;99.90;;;;;;5060025;28;20062;-81
2022/09/20 12:41:47;;;;;;;8.40;1.40;;;15.00;99.90;;;;;;5056862;28;20040;-82
2022/09/20 12:44:35;;;;;;;6.30;1.27;;;15.20;99.90;;;;;;5075779;28;20039;-81
2022/09/20 12:47:19;;;;;;;6.75;1.15;;;15.30;99.90;;;;;;5072551;28;20038;-81
2022/09/20 12:52:55;;;;;;;7.25;1.10;;;15.60;99.90;;;;;;5078696;28;20041;-81
2022/09/20 12:55:28;;;;;;;6.47;1.10;;;15.70;99.90;;;;;;5082037;28;20115;-82
2022/09/20 12:58:14;;;;;;;6.68;1.33;;;15.70;99.90;;;;;;5087800;28;20041;-81
2022/09/20 13:00:58;;;;;;;9.48;1.25;;;15.80;99.90;;;;;;5063125;28;20043;-81
2022/09/20 13:03:35;;;;;;;5.30;1.10;;;15.60;99.90;;;;;;5076691;28;20048;-81
2022/09/20 13:06:04;;;;;;;4.88;0.95;;;15.60;99.90;;;;;;5061979;28;20044;-81
2022/09/20 13:08:35;;;;;;;10.88;1.00;;;15.70;99.90;;;;;;5073110;28;20040;-81
2022/09/20 13:11:16;;;;;;;3.45;1.10;;;15.70;99.90;;;;;;5062181;28;20161;-81
2022/09/20 13:13:49;;;;;;;6.22;0.98;;;15.70;99.90;;;;;;5059555;28;20036;-80
2022/09/20 13:16:21;;;;;;;6.03;1.27;;;15.80;99.90;;;;;;5062232;28;20043;-81
2022/09/20 13:19:00;;;;;;;7.07;1.35;;;15.90;99.90;;;;;;5077301;28;20047;-80
2022/09/20 13:21:27;;;;;;;7.25;1.30;;;15.90;99.90;;;;;;5062478;28;20097;-81
2022/09/20 13:23:54;;;;;;;8.73;1.50;;;15.90;99.90;;;;;;5061146;28;20146;-81
2022/09/20 13:26:32;;;;;;;5.05;1.20;;;15.90;99.90;;;;;;5061521;28;20055;-80
2022/09/20 13:28:58;;;;;;;7.57;1.10;;;15.90;99.90;;;;;;5075184;28;20060;-80
2022/09/20 13:31:26;;;;;;;5.50;1.10;;;15.80;99.90;;;;;;5051968;28;20040;-80
2022/09/20 13:33:52;;;;;;;6.78;1.10;;;15.70;99.90;;;;;;5057026;28;20040;-80
2022/09/20 13:36:27;;;;;;;5.65;1.38;;;15.70;99.90;;;;;;5062069;28;20043;-80
2022/09/20 13:38:55;;;;;;;5.87;0.97;;;15.60;99.90;;;;;;5052693;28;20085;-81
2022/09/20 13:41:21;;;;;;;7.72;1.38;;;15.50;99.90;;;;;;5078382;28;20048;-81
2022/09/20 13:43:49;;;;;;;6.95;1.10;;;15.40;99.90;;;;;;5040571;28;20090;-81
2022/09/20 13:46:16;;;;;;;5.57;1.33;;;15.40;99.90;;;;;;5058020;28;20043;-81
2022/09/20 13:48:46;;;;;;;6.65;1.27;;;15.40;99.90;;;;;;5076302;28;20074;-81
2022/09/20 13:51:27;;;;;;;3.08;1.08;;;15.40;99.90;;;;;;5084606;28;20051;-80
2022/09/20 13:54:25;;;;;;;3.83;1.00;;;15.40;99.90;;;;;;5059048;28;20085;-80
2022/09/20 13:56:51;;;;;;;5.15;1.15;;;15.40;99.90;;;;;;5063334;28;20860;-81
2022/09/20 13:59:18;;;;;;;7.90;1.33;;;15.40;99.90;;;;;;5072122;28;20107;-81